createdAt,value
2023-05-21T00:02:10.149Z,5.25
2023-05-21T00:04:40.677Z,4.82
2023-05-21T00:07:09.566Z,5.20
2023-05-21T00:09:39.840Z,5.00
2023-05-21T00:12:09.520Z,4.90
2023-05-21T00:14:37.858Z,4.50
2023-05-21T00:17:06.506Z,4.80
2023-05-21T00:19:34.853Z,4.75
2023-05-21T00:22:03.791Z,5.07
2023-05-21T00:24:32.107Z,4.95
2023-05-21T00:27:01.808Z,4.93
2023-05-21T00:29:30.178Z,4.82
2023-05-21T00:31:58.690Z,5.45
2023-05-21T00:34:27.329Z,4.80
2023-05-21T00:36:55.850Z,4.93
2023-05-21T00:39:24.538Z,5.10
2023-05-21T00:41:52.963Z,4.95
2023-05-21T00:44:23.744Z,4.65
2023-05-21T00:46:53.757Z,4.77
2023-05-21T00:49:24.546Z,4.80
2023-05-21T00:52:21.703Z,5.05
2023-05-21T00:54:51.229Z,5.25
2023-05-21T00:57:21.794Z,4.93
2023-05-21T00:59:53.365Z,5.17
2023-05-21T01:02:24.454Z,5.47
2023-05-21T01:04:55.895Z,4.97
2023-05-21T01:07:24.218Z,4.47
2023-05-21T01:09:54.225Z,5.13
2023-05-21T01:12:24.711Z,4.77
2023-05-21T01:14:54.967Z,4.70
2023-05-21T01:17:24.469Z,5.50
2023-05-21T01:19:54.823Z,5.05
2023-05-21T01:22:25.104Z,4.95
2023-05-21T01:24:56.204Z,4.90
2023-05-21T01:27:24.484Z,4.80
2023-05-21T01:29:52.808Z,4.40
2023-05-21T01:32:27.578Z,5.00
2023-05-21T01:35:03.314Z,4.93
2023-05-21T01:37:36.379Z,4.60
2023-05-21T01:40:12.041Z,4.68
2023-05-21T01:42:44.393Z,4.82
2023-05-21T01:45:15.102Z,4.65
2023-05-21T01:47:47.987Z,5.22
2023-05-21T01:50:16.557Z,4.77
2023-05-21T01:52:51.042Z,5.03
2023-05-21T01:55:24.722Z,5.10
2023-05-21T01:57:54.014Z,4.97
2023-05-21T02:00:23.264Z,5.25
2023-05-21T02:02:52.005Z,4.67
2023-05-21T02:05:20.521Z,4.95
2023-05-21T02:07:49.831Z,4.85
2023-05-21T02:10:18.078Z,4.35
2023-05-21T02:12:47.773Z,4.40
2023-05-21T02:15:18.139Z,4.50
2023-05-21T02:17:46.803Z,4.50
2023-05-21T02:20:15.699Z,4.85
2023-05-21T02:22:45.575Z,4.72
2023-05-21T02:25:16.057Z,5.18
2023-05-21T02:27:46.629Z,4.83
2023-05-21T02:30:16.927Z,4.50
2023-05-21T02:32:45.593Z,5.00
2023-05-21T02:35:14.542Z,5.03
2023-05-21T02:37:44.200Z,4.85
2023-05-21T02:40:13.693Z,4.73
2023-05-21T02:42:43.115Z,4.80
2023-05-21T02:45:17.480Z,5.35
2023-05-21T02:47:45.974Z,5.28
2023-05-21T02:50:15.973Z,5.40
2023-05-21T02:52:49.726Z,5.37
2023-05-21T02:55:18.147Z,5.50
2023-05-21T02:57:46.484Z,5.43
2023-05-21T03:00:16.136Z,4.95
2023-05-21T03:02:46.588Z,5.57
2023-05-21T03:05:15.220Z,5.10
2023-05-21T03:07:43.684Z,4.88
2023-05-21T03:10:13.451Z,5.18
2023-05-21T03:12:42.277Z,5.78
2023-05-21T03:15:14.885Z,5.30
2023-05-21T03:17:44.594Z,5.23
2023-05-21T03:20:17.175Z,5.45
2023-05-21T03:22:46.497Z,5.45
2023-05-21T03:25:14.941Z,5.43
2023-05-21T03:27:43.449Z,5.15
2023-05-21T03:30:26.747Z,5.33
2023-05-21T03:33:24.737Z,5.57
2023-05-21T03:35:54.550Z,6.07
2023-05-21T03:38:23.132Z,5.18
2023-05-21T03:40:51.656Z,5.15
2023-05-21T03:43:20.549Z,5.27
2023-05-21T03:45:49.291Z,4.85
2023-05-21T03:48:36.226Z,5.10
2023-05-21T03:51:06.317Z,5.35
2023-05-21T03:53:35.559Z,5.32
2023-05-21T03:56:03.876Z,4.73
2023-05-21T03:58:33.417Z,5.63
2023-05-21T04:01:02.940Z,5.63
2023-05-21T04:03:36.299Z,5.35
2023-05-21T04:06:10.375Z,5.22
2023-05-21T04:08:40.334Z,5.57
2023-05-21T04:11:08.702Z,5.40
2023-05-21T04:13:37.501Z,5.43
2023-05-21T04:16:09.132Z,5.30
2023-05-21T04:18:37.836Z,5.80
2023-05-21T04:21:08.044Z,4.90
2023-05-21T04:23:36.810Z,4.90
2023-05-21T04:26:09.786Z,5.32
2023-05-21T04:28:42.267Z,5.28
2023-05-21T04:31:13.067Z,5.72
2023-05-21T04:33:42.270Z,5.53
2023-05-21T04:36:12.495Z,6.18
2023-05-21T04:38:42.059Z,5.47
2023-05-21T04:41:11.056Z,5.18
2023-05-21T04:43:44.046Z,5.68
2023-05-21T04:46:14.880Z,5.50
2023-05-21T04:48:43.196Z,4.95
2023-05-21T04:51:13.340Z,5.70
2023-05-21T04:53:42.616Z,5.82
2023-05-21T04:56:10.934Z,5.30
2023-05-21T04:58:40.579Z,5.13
2023-05-21T05:01:09.049Z,5.07
2023-05-21T05:03:37.526Z,5.70
2023-05-21T05:06:07.798Z,4.95
2023-05-21T05:08:37.742Z,5.70
2023-05-21T05:11:06.815Z,5.77
2023-05-21T05:13:35.345Z,6.05
2023-05-21T05:16:03.639Z,6.28
2023-05-21T05:18:32.163Z,5.70
2023-05-21T05:21:01.688Z,5.38
2023-05-21T05:23:30.113Z,5.77
2023-05-21T05:25:59.932Z,5.15
2023-05-21T05:28:29.051Z,5.95
2023-05-21T05:30:57.454Z,6.10
2023-05-21T05:33:26.960Z,5.13
2023-05-21T05:35:55.385Z,5.50
2023-05-21T05:38:23.886Z,5.10
2023-05-21T05:40:52.214Z,5.70
2023-05-21T05:43:23.158Z,5.30
2023-05-21T05:45:51.746Z,5.55
2023-05-21T05:48:20.801Z,5.27
2023-05-21T05:50:49.508Z,5.00
2023-05-21T05:53:18.056Z,5.88
2023-05-21T05:55:46.951Z,5.50
2023-05-21T05:58:15.640Z,5.65
2023-05-21T06:01:22.764Z,5.13
2023-05-21T06:03:51.467Z,5.50
2023-05-21T06:06:20.759Z,5.15
2023-05-21T06:08:49.300Z,5.50
2023-05-21T06:11:19.286Z,5.80
2023-05-21T06:13:47.670Z,5.37
2023-05-21T06:16:18.756Z,5.07
2023-05-21T06:18:48.587Z,6.32
2023-05-21T06:21:16.945Z,6.45
2023-05-21T06:23:46.458Z,5.70
2023-05-21T06:26:14.812Z,5.70
2023-05-21T06:28:43.218Z,5.85
2023-05-21T06:31:13.749Z,6.03
2023-05-21T06:33:43.872Z,6.07
2023-05-21T06:36:13.874Z,6.28
2023-05-21T06:38:42.735Z,5.90
2023-05-21T06:41:11.105Z,6.00
2023-05-21T06:43:55.210Z,5.63
2023-05-21T06:46:56.086Z,6.10
2023-05-21T06:49:24.586Z,6.63
2023-05-21T06:51:54.397Z,5.93
2023-05-21T06:54:24.014Z,6.18
2023-05-21T06:56:53.319Z,6.25
2023-05-21T06:59:21.725Z,5.97
2023-05-21T07:01:50.182Z,6.07
2023-05-21T07:04:19.235Z,6.80
2023-05-21T07:06:48.577Z,6.43
2023-05-21T07:09:19.037Z,6.35
2023-05-21T07:11:48.505Z,7.03
2023-05-21T07:14:18.421Z,6.53
2023-05-21T07:16:48.527Z,7.20
2023-05-21T07:19:16.937Z,6.55
2023-05-21T07:21:46.030Z,6.43
2023-05-21T07:24:14.519Z,5.93
2023-05-21T07:26:45.527Z,6.50
2023-05-21T07:29:14.392Z,5.70
2023-05-21T07:31:42.713Z,6.50
2023-05-21T07:34:12.088Z,5.82
2023-05-21T07:36:42.539Z,6.60
2023-05-21T07:39:11.032Z,6.78
2023-05-21T07:41:40.123Z,5.73
2023-05-21T07:44:11.450Z,6.47
2023-05-21T07:46:43.167Z,6.53
2023-05-21T07:49:16.845Z,6.40
2023-05-21T07:51:46.812Z,6.35
2023-05-21T07:54:16.672Z,6.30
2023-05-21T07:56:45.143Z,6.28
2023-05-21T07:59:26.004Z,7.20
2023-05-21T08:01:54.646Z,6.75
2023-05-21T08:04:23.463Z,6.72
2023-05-21T08:06:53.817Z,6.77
2023-05-21T08:09:22.126Z,6.80
2023-05-21T08:11:50.670Z,7.07
2023-05-21T08:14:19.028Z,7.50
2023-05-21T08:16:49.157Z,7.03
2023-05-21T08:19:17.651Z,7.23
2023-05-21T08:21:46.211Z,7.43
2023-05-21T08:24:14.588Z,7.28
2023-05-21T08:26:44.710Z,7.28
2023-05-21T08:29:13.572Z,7.03
2023-05-21T08:31:42.046Z,7.17
2023-05-21T08:34:12.139Z,8.00
2023-05-21T08:36:48.119Z,7.18
2023-05-21T08:39:41.228Z,6.60
2023-05-21T08:42:35.184Z,6.32
2023-05-21T08:45:07.841Z,7.10
2023-05-21T08:47:37.476Z,6.72
2023-05-21T08:50:11.417Z,7.22
2023-05-21T08:52:40.041Z,6.93
2023-05-21T08:55:09.701Z,7.70
2023-05-21T08:57:44.167Z,8.30
2023-05-21T09:00:15.743Z,7.75
2023-05-21T09:02:46.543Z,8.30
2023-05-21T09:05:18.101Z,7.40
2023-05-21T09:07:52.760Z,7.95
2023-05-21T09:10:37.357Z,7.97
2023-05-21T09:13:08.093Z,8.45
2023-05-21T09:15:37.587Z,7.70
2023-05-21T09:18:07.107Z,7.90
2023-05-21T09:20:46.548Z,7.90
2023-05-21T09:23:18.935Z,8.90
2023-05-21T09:25:52.064Z,8.23
2023-05-21T09:28:29.008Z,8.50
2023-05-21T09:30:57.422Z,8.05
2023-05-21T09:33:26.234Z,8.13
2023-05-21T09:35:56.596Z,8.27
2023-05-21T09:38:27.122Z,7.90
2023-05-21T09:40:56.957Z,8.85
2023-05-21T09:43:29.403Z,7.80
2023-05-21T09:46:01.294Z,8.50
2023-05-21T09:48:37.361Z,8.00
2023-05-21T09:51:14.840Z,9.00
2023-05-21T09:53:50.799Z,9.13
2023-05-21T09:56:23.506Z,8.30
2023-05-21T09:58:55.781Z,8.85
2023-05-21T10:01:25.646Z,8.93
2023-05-21T10:03:58.014Z,9.27
2023-05-21T10:06:33.781Z,9.02
2023-05-21T10:09:07.388Z,8.98
2023-05-21T10:11:37.782Z,8.15
2023-05-21T10:14:08.246Z,9.50
2023-05-21T10:16:37.871Z,9.05
2023-05-21T10:19:11.076Z,8.57
2023-05-21T10:21:46.315Z,8.95
2023-05-21T10:24:19.335Z,8.85
2023-05-21T10:26:49.557Z,9.53
2023-05-21T10:29:23.678Z,9.73
2023-05-21T10:31:54.025Z,8.93
2023-05-21T10:34:24.612Z,9.48
2023-05-21T10:36:57.262Z,10.07
2023-05-21T10:39:26.800Z,9.30
2023-05-21T10:42:03.541Z,10.00
2023-05-21T10:44:43.809Z,10.05
2023-05-21T10:47:50.205Z,9.63
2023-05-21T10:51:08.282Z,10.68
2023-05-21T10:53:54.023Z,9.93
2023-05-21T10:56:26.195Z,10.30
2023-05-21T10:59:22.398Z,10.50
2023-05-21T11:01:53.150Z,10.45
2023-05-21T11:04:27.326Z,10.68
2023-05-21T11:06:56.372Z,9.97
2023-05-21T11:09:27.970Z,9.93
2023-05-21T11:12:04.709Z,11.52
2023-05-21T11:14:36.339Z,10.23
2023-05-21T11:17:06.044Z,11.55
2023-05-21T11:19:39.517Z,12.63
2023-05-21T11:22:21.975Z,11.52
2023-05-21T11:24:52.800Z,11.23
2023-05-21T11:27:35.661Z,11.65
2023-05-21T11:30:08.824Z,11.15
2023-05-21T11:32:41.010Z,10.97
2023-05-21T11:35:10.137Z,11.18
2023-05-21T11:37:41.876Z,10.70
2023-05-21T11:40:36.905Z,11.52
2023-05-21T11:43:05.555Z,10.00
2023-05-21T11:45:34.463Z,10.80
2023-05-21T11:48:03.917Z,11.38
2023-05-21T11:50:34.163Z,10.80
2023-05-21T11:53:03.460Z,10.60
2023-05-21T11:55:33.211Z,10.48
2023-05-21T11:58:03.807Z,10.73
2023-05-21T12:00:32.380Z,10.55
2023-05-21T12:03:02.067Z,10.90
2023-05-21T12:05:30.653Z,10.57
2023-05-21T12:07:59.287Z,10.75
2023-05-21T12:10:27.819Z,11.13
2023-05-21T12:13:08.193Z,11.55
2023-05-21T12:15:47.619Z,11.55
2023-05-21T12:18:36.149Z,11.10
2023-05-21T12:21:07.024Z,10.30
2023-05-21T12:23:39.978Z,11.37
2023-05-21T12:26:12.268Z,11.35
2023-05-21T12:28:44.926Z,11.85
2023-05-21T12:31:19.204Z,10.68
2023-05-21T12:33:53.914Z,10.63
2023-05-21T12:36:29.106Z,10.83
2023-05-21T12:38:58.736Z,10.45
2023-05-21T12:41:36.930Z,10.80
2023-05-21T12:44:18.824Z,10.32
2023-05-21T12:46:47.916Z,10.85
2023-05-21T12:49:35.038Z,11.03
2023-05-21T12:52:05.153Z,11.35
2023-05-21T12:54:36.404Z,11.13
2023-05-21T12:57:12.675Z,10.90
2023-05-21T12:59:53.466Z,11.57
2023-05-21T13:02:23.115Z,11.57
2023-05-21T13:04:56.569Z,10.45
2023-05-21T13:07:26.295Z,11.60
2023-05-21T13:09:55.593Z,11.70
2023-05-21T13:12:26.086Z,11.85
2023-05-21T13:14:57.359Z,10.27
2023-05-21T13:17:27.579Z,11.50
2023-05-21T13:20:09.933Z,12.20
2023-05-21T13:22:42.488Z,10.75
2023-05-21T13:25:12.370Z,11.50
2023-05-21T13:27:40.961Z,10.83
2023-05-21T13:30:12.325Z,12.60
2023-05-21T13:32:43.997Z,12.73
2023-05-21T13:35:16.702Z,12.57
2023-05-21T13:37:46.078Z,12.20
2023-05-21T13:40:16.856Z,12.17
2023-05-21T13:42:47.648Z,11.77
2023-05-21T13:45:18.841Z,11.80
2023-05-21T13:47:48.192Z,12.77
2023-05-21T13:50:17.462Z,12.57
2023-05-21T13:52:46.284Z,11.63
2023-05-21T13:55:16.117Z,12.27
2023-05-21T13:57:45.014Z,12.23
2023-05-21T14:00:16.159Z,13.48
2023-05-21T14:02:46.171Z,12.55
2023-05-21T14:05:14.620Z,12.50
2023-05-21T14:07:43.244Z,12.60
2023-05-21T14:10:12.517Z,12.43
2023-05-21T14:12:42.238Z,12.65
2023-05-21T14:15:12.074Z,12.75
2023-05-21T14:17:42.646Z,11.10
2023-05-21T14:20:13.701Z,12.95
2023-05-21T14:22:42.434Z,11.95
2023-05-21T14:25:11.271Z,12.13
2023-05-21T14:27:39.894Z,12.77
2023-05-21T14:30:09.616Z,12.67
2023-05-21T14:32:38.715Z,11.77
2023-05-21T14:35:08.037Z,12.32
2023-05-21T14:37:37.971Z,12.45
2023-05-21T14:40:08.172Z,11.07
2023-05-21T14:42:36.908Z,11.83
2023-05-21T14:45:18.102Z,11.95
2023-05-21T14:47:52.369Z,11.82
2023-05-21T14:50:21.731Z,11.30
2023-05-21T14:52:51.592Z,12.13
2023-05-21T14:55:22.532Z,11.00
2023-05-21T14:57:51.354Z,11.75
2023-05-21T15:00:19.956Z,10.88
2023-05-21T15:02:51.652Z,11.05
2023-05-21T15:05:20.306Z,10.88
2023-05-21T15:07:49.011Z,11.83
2023-05-21T15:10:19.764Z,10.35
2023-05-21T15:12:49.643Z,10.82
2023-05-21T15:15:20.880Z,10.90
2023-05-21T15:17:50.740Z,10.88
2023-05-21T15:20:19.763Z,10.57
2023-05-21T15:22:49.134Z,10.63
2023-05-21T15:25:20.267Z,10.85
2023-05-21T15:27:50.395Z,11.20
2023-05-21T15:30:20.860Z,11.10
2023-05-21T15:32:54.768Z,10.13
2023-05-21T15:35:23.361Z,11.27
2023-05-21T15:37:52.194Z,11.27
2023-05-21T15:40:25.473Z,11.20
2023-05-21T15:42:55.781Z,10.40
2023-05-21T15:45:25.541Z,10.67
2023-05-21T15:47:54.398Z,10.40
2023-05-21T15:50:23.072Z,10.27
2023-05-21T15:52:54.662Z,10.10
2023-05-21T15:55:25.314Z,11.18
2023-05-21T15:57:54.007Z,11.03
2023-05-21T16:00:22.836Z,10.63
2023-05-21T16:02:51.831Z,11.23
2023-05-21T16:05:20.625Z,10.60
2023-05-21T16:07:54.507Z,11.25
2023-05-21T16:10:25.145Z,11.20
2023-05-21T16:12:54.024Z,10.82
2023-05-21T16:15:22.786Z,10.65
2023-05-21T16:17:51.445Z,10.35
2023-05-21T16:20:22.352Z,11.63
2023-05-21T16:22:51.239Z,11.20
2023-05-21T16:25:19.940Z,10.35
2023-05-21T16:27:53.007Z,11.60
2023-05-21T16:30:21.698Z,10.93
2023-05-21T16:32:51.135Z,11.25
2023-05-21T16:35:20.040Z,10.67
2023-05-21T16:37:48.477Z,10.45
2023-05-21T16:40:18.849Z,10.38
2023-05-21T16:42:47.574Z,10.23
2023-05-21T16:45:20.814Z,10.68
2023-05-21T16:47:49.827Z,10.63
2023-05-21T16:50:20.387Z,10.98
2023-05-21T16:52:49.995Z,10.45
2023-05-21T16:55:18.696Z,9.30
2023-05-21T16:57:47.340Z,10.25
2023-05-21T17:00:19.760Z,10.20
2023-05-21T17:02:49.357Z,10.77
2023-05-21T17:05:18.581Z,10.18
2023-05-21T17:07:49.119Z,9.55
2023-05-21T17:10:18.108Z,9.65
2023-05-21T17:12:47.556Z,9.70
2023-05-21T17:18:35.971Z,10.05
2023-05-21T17:21:22.862Z,10.18
2023-05-21T17:24:38.191Z,9.70
2023-05-21T17:27:13.450Z,9.63
2023-05-21T17:29:52.905Z,10.00
2023-05-21T17:41:44.603Z,9.30
2023-05-21T17:52:27.346Z,8.65
2023-05-21T17:54:58.299Z,8.30
2023-05-21T17:57:32.115Z,9.15
2023-05-21T18:00:05.780Z,9.77
2023-05-21T18:06:13.251Z,9.63
2023-05-21T18:09:16.651Z,9.18
2023-05-21T18:11:47.538Z,9.77
2023-05-21T18:14:20.729Z,9.77
2023-05-21T18:16:55.905Z,9.65
2023-05-21T18:19:30.798Z,9.98
2023-05-21T18:22:01.135Z,10.43
2023-05-21T18:24:30.682Z,9.82
2023-05-21T18:27:20.125Z,9.80
2023-05-21T18:32:59.471Z,10.30
2023-05-21T18:42:41.738Z,11.00
2023-05-21T18:45:31.359Z,11.30
2023-05-21T18:48:31.401Z,12.73
2023-05-21T18:51:01.772Z,10.75
2023-05-21T18:53:31.617Z,11.80
2023-05-21T18:56:01.405Z,10.57
2023-05-21T19:02:03.364Z,11.18
2023-05-21T19:07:39.305Z,10.90
2023-05-21T19:37:02.785Z,10.55
2023-05-21T19:39:39.302Z,10.75
2023-05-21T19:42:21.612Z,11.57
2023-05-21T19:47:50.608Z,11.18
2023-05-21T19:50:19.852Z,11.25
2023-05-21T19:52:53.728Z,10.90
2023-05-21T19:55:22.944Z,11.70
2023-05-21T19:57:52.188Z,11.23
2023-05-21T20:00:21.551Z,11.20
2023-05-21T20:02:52.310Z,11.30
2023-05-21T20:05:21.976Z,11.63
2023-05-21T20:07:52.559Z,10.60
2023-05-21T20:21:40.593Z,9.38
2023-05-21T20:24:11.490Z,10.07
2023-05-21T20:26:45.042Z,10.32
2023-05-21T20:29:13.814Z,10.95
2023-05-21T20:34:54.678Z,10.90
2023-05-21T20:37:32.585Z,10.50
2023-05-21T20:40:02.828Z,10.18
2023-05-21T20:42:34.936Z,10.25
2023-05-21T20:45:05.078Z,10.63
2023-05-21T20:47:34.944Z,10.18
2023-05-21T20:50:04.317Z,10.57
2023-05-21T20:52:33.118Z,9.90
2023-05-21T20:55:04.540Z,9.77
2023-05-21T20:57:33.154Z,9.50
2023-05-21T21:00:01.477Z,9.95
2023-05-21T21:02:31.231Z,9.67
2023-05-21T21:05:00.060Z,9.45
2023-05-21T21:07:30.114Z,10.38
2023-05-21T21:09:58.862Z,9.70
2023-05-21T21:12:28.688Z,10.13
2023-05-21T21:14:57.163Z,9.67
2023-05-21T21:17:25.414Z,9.98
2023-05-21T21:19:53.682Z,10.20
2023-05-21T21:22:22.120Z,9.38
2023-05-21T21:24:50.386Z,10.25
2023-05-21T21:27:18.818Z,9.17
2023-05-21T21:29:48.450Z,9.90
2023-05-21T21:32:17.011Z,10.85
2023-05-21T21:34:45.564Z,10.05
2023-05-21T21:37:13.971Z,9.93
2023-05-21T21:39:42.380Z,10.40
2023-05-21T21:42:10.825Z,9.90
2023-05-21T21:44:39.482Z,11.00
2023-05-21T21:47:09.249Z,10.05
2023-05-21T21:49:37.685Z,10.13
2023-05-21T21:52:07.150Z,10.50
2023-05-21T21:54:35.498Z,9.63
2023-05-21T21:57:03.763Z,10.13
2023-05-21T21:59:32.253Z,9.90
2023-05-21T22:02:00.870Z,10.25
2023-05-21T22:04:30.609Z,10.00
2023-05-21T22:06:59.089Z,9.85
2023-05-21T22:09:27.432Z,10.40
2023-05-21T22:11:55.860Z,10.27
2023-05-21T22:14:24.127Z,9.85
2023-05-21T22:16:53.361Z,10.23
2023-05-21T22:19:22.740Z,9.70
2023-05-21T22:21:54.088Z,10.23
2023-05-21T22:24:32.153Z,9.82
2023-05-21T22:27:01.610Z,9.68
2023-05-21T22:29:29.915Z,9.50
2023-05-21T22:31:58.411Z,10.48
2023-05-21T22:34:26.643Z,10.02
2023-05-21T22:36:56.569Z,9.88
2023-05-21T22:39:24.889Z,9.88
2023-05-21T22:41:53.133Z,9.80
2023-05-21T22:44:21.336Z,9.30
2023-05-21T22:46:49.647Z,9.75
2023-05-21T22:49:18.045Z,9.75
2023-05-21T22:51:46.432Z,9.70
2023-05-21T22:54:16.189Z,9.73
2023-05-21T22:56:45.021Z,10.55
2023-05-21T22:59:13.311Z,9.65
2023-05-21T23:01:41.856Z,10.00
2023-05-21T23:04:10.214Z,9.85
2023-05-21T23:06:38.477Z,10.47
2023-05-21T23:09:07.031Z,10.40
2023-05-21T23:11:37.089Z,10.23
2023-05-21T23:14:05.384Z,9.75
2023-05-21T23:16:33.818Z,9.93
2023-05-21T23:19:02.803Z,9.97
2023-05-21T23:21:31.481Z,10.18
2023-05-21T23:23:59.745Z,10.27
2023-05-21T23:26:28.617Z,9.10
2023-05-21T23:28:58.245Z,10.00
2023-05-21T23:31:26.920Z,9.53
2023-05-21T23:33:55.480Z,9.95
2023-05-21T23:36:23.884Z,10.73
2023-05-21T23:38:52.159Z,9.65
2023-05-21T23:41:21.030Z,10.55
2023-05-21T23:43:49.299Z,9.27
2023-05-21T23:46:19.042Z,8.85
2023-05-21T23:48:47.445Z,10.45
2023-05-21T23:51:16.241Z,10.18
2023-05-21T23:54:10.398Z,10.38
2023-05-21T23:56:38.661Z,9.53
2023-05-21T23:59:06.911Z,10.20
